sensor_id;sensor_type;location;lat;lon;timestamp;pressure;altitude;pressure_sealevel;temperature;humidity
28626;BME280;18905;42.668;23.364;2022-12-20T00:00:46;96914.63;;;-0.03;100.00
28626;BME280;18905;42.668;23.364;2022-12-20T00:03:12;96914.44;;;-0.15;100.00
28626;BME280;18905;42.668;23.364;2022-12-20T00:05:39;96922.19;;;-0.07;100.00
28626;BME280;18905;42.668;23.364;2022-12-20T00:08:05;96904.25;;;-0.24;100.00
28626;BME280;18905;42.668;23.364;2022-12-20T00:10:43;96928.94;;;0.03;100.00
28626;BME280;18905;42.668;23.364;2022-12-20T00:13:10;96943.66;;;-0.15;100.00
28626;BME280;18905;42.668;23.364;2022-12-20T00:15:36;96910.56;;;-0.19;100.00
28626;BME280;18905;42.668;23.364;2022-12-20T00:18:01;96925.03;;;-0.02;100.00
28626;BME280;18905;42.668;23.364;2022-12-20T00:20:28;96914.25;;;-0.20;100.00
28626;BME280;18905;42.668;23.364;2022-12-20T00:22:53;96943.00;;;0.03;100.00
28626;BME280;18905;42.668;23.364;2022-12-20T00:25:20;96939.94;;;-0.01;100.00
28626;BME280;18905;42.668;23.364;2022-12-20T00:27:46;96939.78;;;-0.12;100.00
28626;BME280;18905;42.668;23.364;2022-12-20T00:30:12;96944.03;;;0.02;100.00
28626;BME280;18905;42.668;23.364;2022-12-20T00:32:38;96943.44;;;-0.13;100.00
28626;BME280;18905;42.668;23.364;2022-12-20T00:35:04;96931.81;;;-0.12;100.00
28626;BME280;18905;42.668;23.364;2022-12-20T00:37:30;96941.38;;;-0.11;100.00
28626;BME280;18905;42.668;23.364;2022-12-20T00:39:55;96921.19;;;-0.32;100.00
28626;BME280;18905;42.668;23.364;2022-12-20T00:42:20;96934.88;;;-0.22;100.00
28626;BME280;18905;42.668;23.364;2022-12-20T00:44:46;96913.63;;;-0.35;100.00
28626;BME280;18905;42.668;23.364;2022-12-20T00:47:11;96925.28;;;-0.29;100.00
28626;BME280;18905;42.668;23.364;2022-12-20T00:49:37;96917.94;;;-0.34;100.00
28626;BME280;18905;42.668;23.364;2022-12-20T00:52:02;96916.28;;;-0.35;100.00
28626;BME280;18905;42.668;23.364;2022-12-20T00:54:28;96911.59;;;-0.33;100.00
28626;BME280;18905;42.668;23.364;2022-12-20T00:56:53;96928.94;;;-0.17;100.00
28626;BME280;18905;42.668;23.364;2022-12-20T00:59:19;96931.41;;;-0.16;100.00
28626;BME280;18905;42.668;23.364;2022-12-20T01:01:46;96932.63;;;-0.18;100.00
28626;BME280;18905;42.668;23.364;2022-12-20T01:04:12;96897.94;;;-0.43;100.00
28626;BME280;18905;42.668;23.364;2022-12-20T01:06:38;96904.25;;;-0.37;100.00
28626;BME280;18905;42.668;23.364;2022-12-20T01:09:03;96935.88;;;-0.16;100.00
28626;BME280;18905;42.668;23.364;2022-12-20T01:11:32;96933.44;;;-0.18;100.00
28626;BME280;18905;42.668;23.364;2022-12-20T01:14:01;96933.44;;;-0.11;100.00
28626;BME280;18905;42.668;23.364;2022-12-20T01:16:31;96933.22;;;-0.16;100.00
28626;BME280;18905;42.668;23.364;2022-12-20T01:18:56;96930.00;;;-0.25;100.00
28626;BME280;18905;42.668;23.364;2022-12-20T01:21:24;96921.59;;;-0.22;100.00
28626;BME280;18905;42.668;23.364;2022-12-20T01:23:50;96914.63;;;-0.10;100.00
28626;BME280;18905;42.668;23.364;2022-12-20T01:26:18;96889.34;;;-0.38;100.00
28626;BME280;18905;42.668;23.364;2022-12-20T01:28:45;96917.50;;;-0.24;100.00
28626;BME280;18905;42.668;23.364;2022-12-20T01:31:16;96918.75;;;-0.27;100.00
28626;BME280;18905;42.668;23.364;2022-12-20T01:33:43;96909.72;;;-0.13;100.00
28626;BME280;18905;42.668;23.364;2022-12-20T01:36:15;96909.75;;;-0.19;100.00
28626;BME280;18905;42.668;23.364;2022-12-20T01:38:41;96886.50;;;-0.37;100.00
28626;BME280;18905;42.668;23.364;2022-12-20T01:41:07;96902.81;;;-0.33;100.00
28626;BME280;18905;42.668;23.364;2022-12-20T01:44:49;96904.69;;;-0.34;100.00
28626;BME280;18905;42.668;23.364;2022-12-20T01:46:36;96896.28;;;-0.37;100.00
28626;BME280;18905;42.668;23.364;2022-12-20T01:49:25;96880.38;;;-0.44;100.00
28626;BME280;18905;42.668;23.364;2022-12-20T01:52:01;96896.09;;;-0.42;100.00
28626;BME280;18905;42.668;23.364;2022-12-20T01:54:32;96887.72;;;-0.39;100.00
28626;BME280;18905;42.668;23.364;2022-12-20T01:57:03;96869.78;;;-0.57;100.00
28626;BME280;18905;42.668;23.364;2022-12-20T01:59:32;96870.78;;;-0.51;100.00
28626;BME280;18905;42.668;23.364;2022-12-20T02:02:04;96876.31;;;-0.53;100.00
28626;BME280;18905;42.668;23.364;2022-12-20T02:04:31;96875.91;;;-0.69;100.00
28626;BME280;18905;42.668;23.364;2022-12-20T02:06:58;96874.66;;;-0.54;100.00
28626;BME280;18905;42.668;23.364;2022-12-20T02:09:24;96877.31;;;-0.54;100.00
28626;BME280;18905;42.668;23.364;2022-12-20T02:12:11;96868.16;;;-0.71;100.00
28626;BME280;18905;42.668;23.364;2022-12-20T02:14:53;96871.63;;;-0.64;100.00
28626;BME280;18905;42.668;23.364;2022-12-20T02:17:41;96858.34;;;-0.70;100.00
28626;BME280;18905;42.668;23.364;2022-12-20T02:31:42;96825.09;;;-0.92;100.00
28626;BME280;18905;42.668;23.364;2022-12-20T02:34:10;96855.31;;;-0.74;100.00
28626;BME280;18905;42.668;23.364;2022-12-20T02:36:36;96868.16;;;-0.71;100.00
28626;BME280;18905;42.668;23.364;2022-12-20T02:39:02;96859.56;;;-0.86;100.00
28626;BME280;18905;42.668;23.364;2022-12-20T02:41:49;96854.28;;;-0.86;100.00
28626;BME280;18905;42.668;23.364;2022-12-20T02:44:18;96862.44;;;-0.68;100.00
28626;BME280;18905;42.668;23.364;2022-12-20T02:47:07;96863.88;;;-0.78;100.00
28626;BME280;18905;42.668;23.364;2022-12-20T02:49:36;96863.25;;;-0.74;100.00
28626;BME280;18905;42.668;23.364;2022-12-20T02:52:04;96847.75;;;-0.77;100.00
28626;BME280;18905;42.668;23.364;2022-12-20T02:54:31;96858.78;;;-0.80;100.00
28626;BME280;18905;42.668;23.364;2022-12-20T02:57:03;96854.06;;;-0.84;100.00
28626;BME280;18905;42.668;23.364;2022-12-20T02:59:44;96860.41;;;-0.72;100.00
28626;BME280;18905;42.668;23.364;2022-12-20T03:02:13;96855.94;;;-0.85;100.00
28626;BME280;18905;42.668;23.364;2022-12-20T03:04:40;96858.34;;;-0.83;100.00
28626;BME280;18905;42.668;23.364;2022-12-20T03:07:09;96847.97;;;-0.85;100.00
28626;BME280;18905;42.668;23.364;2022-12-20T03:09:37;96850.19;;;-0.95;100.00
28626;BME280;18905;42.668;23.364;2022-12-20T03:12:03;96841.63;;;-0.97;100.00
28626;BME280;18905;42.668;23.364;2022-12-20T03:14:29;96846.75;;;-1.02;100.00
28626;BME280;18905;42.668;23.364;2022-12-20T03:16:54;96838.38;;;-1.05;100.00
28626;BME280;18905;42.668;23.364;2022-12-20T03:19:20;96844.28;;;-1.03;100.00
28626;BME280;18905;42.668;23.364;2022-12-20T03:21:46;96799.00;;;-1.28;100.00
28626;BME280;18905;42.668;23.364;2022-12-20T03:24:11;96840.81;;;-1.10;100.00
28626;BME280;18905;42.668;23.364;2022-12-20T03:26:38;96844.47;;;-1.18;100.00
28626;BME280;18905;42.668;23.364;2022-12-20T03:29:04;96843.44;;;-1.10;100.00
28626;BME280;18905;42.668;23.364;2022-12-20T03:31:29;96839.19;;;-1.11;100.00
28626;BME280;18905;42.668;23.364;2022-12-20T03:33:56;96836.94;;;-1.14;100.00
28626;BME280;18905;42.668;23.364;2022-12-20T03:36:22;96844.09;;;-1.08;100.00
28626;BME280;18905;42.668;23.364;2022-12-20T03:38:51;96833.69;;;-1.10;100.00
28626;BME280;18905;42.668;23.364;2022-12-20T03:41:18;96838.38;;;-1.18;100.00
28626;BME280;18905;42.668;23.364;2022-12-20T03:43:44;96830.41;;;-1.25;100.00
28626;BME280;18905;42.668;23.364;2022-12-20T03:46:09;96809.59;;;-1.34;100.00
28626;BME280;18905;42.668;23.364;2022-12-20T03:48:35;96834.69;;;-1.24;100.00
28626;BME280;18905;42.668;23.364;2022-12-20T03:51:01;96818.56;;;-1.29;100.00
28626;BME280;18905;42.668;23.364;2022-12-20T03:53:26;96833.47;;;-1.28;100.00
28626;BME280;18905;42.668;23.364;2022-12-20T03:55:52;96823.25;;;-1.31;100.00
28626;BME280;18905;42.668;23.364;2022-12-20T03:58:17;96808.97;;;-1.56;100.00
28626;BME280;18905;42.668;23.364;2022-12-20T04:00:43;96827.94;;;-1.33;100.00
28626;BME280;18905;42.668;23.364;2022-12-20T04:03:08;96824.47;;;-1.33;100.00
28626;BME280;18905;42.668;23.364;2022-12-20T04:05:33;96811.03;;;-1.32;100.00
28626;BME280;18905;42.668;23.364;2022-12-20T04:07:59;96833.47;;;-1.21;100.00
28626;BME280;18905;42.668;23.364;2022-12-20T04:10:24;96805.94;;;-1.14;100.00
28626;BME280;18905;42.668;23.364;2022-12-20T04:12:50;96803.72;;;-1.23;100.00
28626;BME280;18905;42.668;23.364;2022-12-20T04:15:15;96828.56;;;-1.24;100.00
28626;BME280;18905;42.668;23.364;2022-12-20T04:17:41;96832.25;;;-1.12;100.00
28626;BME280;18905;42.668;23.364;2022-12-20T04:20:07;96817.97;;;-1.18;100.00
28626;BME280;18905;42.668;23.364;2022-12-20T04:22:48;96825.13;;;-1.18;100.00
28626;BME280;18905;42.668;23.364;2022-12-20T04:25:16;96825.31;;;-1.26;100.00
28626;BME280;18905;42.668;23.364;2022-12-20T04:27:41;96797.78;;;-1.32;100.00
28626;BME280;18905;42.668;23.364;2022-12-20T04:30:08;96818.56;;;-1.29;100.00
28626;BME280;18905;42.668;23.364;2022-12-20T04:32:34;96818.19;;;-1.26;100.00
28626;BME280;18905;42.668;23.364;2022-12-20T04:34:59;96807.13;;;-1.36;100.00
28626;BME280;18905;42.668;23.364;2022-12-20T04:37:25;96814.50;;;-1.25;100.00
28626;BME280;18905;42.668;23.364;2022-12-20T04:39:50;96822.25;;;-1.23;100.00
28626;BME280;18905;42.668;23.364;2022-12-20T04:42:15;96818.97;;;-1.32;100.00
28626;BME280;18905;42.668;23.364;2022-12-20T04:44:41;96811.66;;;-1.36;100.00
28626;BME280;18905;42.668;23.364;2022-12-20T04:47:06;96817.75;;;-1.36;100.00
28626;BME280;18905;42.668;23.364;2022-12-20T04:49:32;96812.44;;;-1.42;100.00
28626;BME280;18905;42.668;23.364;2022-12-20T04:51:57;96812.44;;;-1.36;100.00
28626;BME280;18905;42.668;23.364;2022-12-20T04:54:43;96809.19;;;-1.31;100.00
28626;BME280;18905;42.668;23.364;2022-12-20T04:57:08;96803.06;;;-1.38;100.00
28626;BME280;18905;42.668;23.364;2022-12-20T04:59:34;96818.38;;;-1.21;100.00
28626;BME280;18905;42.668;23.364;2022-12-20T05:02:00;96786.34;;;-1.13;100.00
28626;BME280;18905;42.668;23.364;2022-12-20T05:04:25;96817.75;;;0.13;100.00
28626;BME280;18905;42.668;23.364;2022-12-20T05:06:51;96805.59;;;-0.21;100.00
28626;BME280;18905;42.668;23.364;2022-12-20T05:09:16;96811.19;;;-0.49;100.00
28626;BME280;18905;42.668;23.364;2022-12-20T05:11:41;96816.66;;;-0.37;100.00
28626;BME280;18905;42.668;23.364;2022-12-20T05:14:07;96786.44;;;-0.30;100.00
28626;BME280;18905;42.668;23.364;2022-12-20T05:16:32;96809.56;;;-0.50;100.00
28626;BME280;18905;42.668;23.364;2022-12-20T05:18:57;96812.66;;;-0.66;100.00
28626;BME280;18905;42.668;23.364;2022-12-20T05:21:23;96816.75;;;-0.96;100.00
28626;BME280;18905;42.668;23.364;2022-12-20T05:24:08;96811.03;;;-1.25;100.00
28626;BME280;18905;42.668;23.364;2022-12-20T05:26:52;96815.53;;;-1.26;100.00
28626;BME280;18905;42.668;23.364;2022-12-20T05:29:17;96802.03;;;-1.50;100.00
28626;BME280;18905;42.668;23.364;2022-12-20T05:31:43;96808.56;;;-1.40;100.00
28626;BME280;18905;42.668;23.364;2022-12-20T05:34:08;96797.34;;;-1.55;100.00
28626;BME280;18905;42.668;23.364;2022-12-20T05:36:34;96802.00;;;-1.63;100.00
28626;BME280;18905;42.668;23.364;2022-12-20T05:38:59;96816.72;;;-1.54;100.00
28626;BME280;18905;42.668;23.364;2022-12-20T05:41:25;96802.22;;;-1.65;100.00
28626;BME280;18905;42.668;23.364;2022-12-20T05:43:50;96807.69;;;-1.73;100.00
28626;BME280;18905;42.668;23.364;2022-12-20T05:46:16;96818.28;;;-1.66;100.00
28626;BME280;18905;42.668;23.364;2022-12-20T05:48:42;96800.59;;;-1.66;100.00
28626;BME280;18905;42.668;23.364;2022-12-20T05:51:07;96825.06;;;-1.44;100.00
28626;BME280;18905;42.668;23.364;2022-12-20T05:53:32;96823.03;;;-1.49;100.00
28626;BME280;18905;42.668;23.364;2022-12-20T05:55:58;96820.78;;;-1.52;100.00
28626;BME280;18905;42.668;23.364;2022-12-20T05:58:24;96818.34;;;-1.40;100.00
28626;BME280;18905;42.668;23.364;2022-12-20T06:00:49;96815.47;;;-1.58;100.00
28626;BME280;18905;42.668;23.364;2022-12-20T06:03:15;96818.91;;;-1.71;100.00
28626;BME280;18905;42.668;23.364;2022-12-20T06:05:41;96831.16;;;-1.57;100.00
28626;BME280;18905;42.668;23.364;2022-12-20T06:08:08;96807.31;;;-1.63;100.00
28626;BME280;18905;42.668;23.364;2022-12-20T06:10:34;96824.72;;;-1.28;100.00
28626;BME280;18905;42.668;23.364;2022-12-20T06:13:02;96829.00;;;-1.14;100.00
28626;BME280;18905;42.668;23.364;2022-12-20T06:15:28;96823.69;;;-1.01;100.00
28626;BME280;18905;42.668;23.364;2022-12-20T06:17:54;96829.19;;;-1.29;100.00
28626;BME280;18905;42.668;23.364;2022-12-20T06:20:20;96826.53;;;-1.16;100.00
28626;BME280;18905;42.668;23.364;2022-12-20T06:22:45;96798.41;;;-1.23;100.00
28626;BME280;18905;42.668;23.364;2022-12-20T06:25:11;96814.69;;;-1.33;100.00
28626;BME280;18905;42.668;23.364;2022-12-20T06:27:37;96827.56;;;-0.91;100.00
28626;BME280;18905;42.668;23.364;2022-12-20T06:30:06;96836.25;;;-0.25;100.00
28626;BME280;18905;42.668;23.364;2022-12-20T06:32:32;96828.06;;;-0.24;100.00
28626;BME280;18905;42.668;23.364;2022-12-20T06:34:57;96821.78;;;0.90;100.00
28626;BME280;18905;42.668;23.364;2022-12-20T06:37:23;96835.81;;;1.71;100.00
28626;BME280;18905;42.668;23.364;2022-12-20T06:39:48;96803.78;;;3.02;100.00
28626;BME280;18905;42.668;23.364;2022-12-20T06:42:13;96826.13;;;3.65;97.36
28626;BME280;18905;42.668;23.364;2022-12-20T06:44:39;96809.63;;;4.70;85.57
28626;BME280;18905;42.668;23.364;2022-12-20T06:47:04;96822.72;;;6.15;76.33
28626;BME280;18905;42.668;23.364;2022-12-20T06:49:30;96821.47;;;6.87;64.32
28626;BME280;18905;42.668;23.364;2022-12-20T06:51:55;96811.31;;;6.03;62.54
28626;BME280;18905;42.668;23.364;2022-12-20T06:54:21;96793.44;;;5.92;61.67
28626;BME280;18905;42.668;23.364;2022-12-20T06:56:46;96795.84;;;6.10;61.18
28626;BME280;18905;42.668;23.364;2022-12-20T06:59:11;96819.59;;;7.45;59.46
28626;BME280;18905;42.668;23.364;2022-12-20T07:01:37;96814.09;;;7.98;54.59
28626;BME280;18905;42.668;23.364;2022-12-20T07:04:03;96772.97;;;8.03;53.12
28626;BME280;18905;42.668;23.364;2022-12-20T07:06:28;96803.44;;;7.09;53.71
28626;BME280;18905;42.668;23.364;2022-12-20T07:08:54;96800.97;;;5.40;57.26
28626;BME280;18905;42.668;23.364;2022-12-20T07:11:20;96799.97;;;4.69;62.88
28626;BME280;18905;42.668;23.364;2022-12-20T07:13:45;96792.78;;;3.90;67.27
28626;BME280;18905;42.668;23.364;2022-12-20T07:16:11;96782.00;;;3.74;71.40
28626;BME280;18905;42.668;23.364;2022-12-20T07:18:36;96782.56;;;3.76;74.64
28626;BME280;18905;42.668;23.364;2022-12-20T07:21:04;96794.44;;;4.19;71.58
28626;BME280;18905;42.668;23.364;2022-12-20T07:23:30;96779.94;;;5.49;64.68
28626;BME280;18905;42.668;23.364;2022-12-20T07:25:57;96790.03;;;6.39;60.35
28626;BME280;18905;42.668;23.364;2022-12-20T07:28:24;96794.34;;;6.88;57.78
28626;BME280;18905;42.668;23.364;2022-12-20T07:30:50;96793.97;;;8.57;52.17
28626;BME280;18905;42.668;23.364;2022-12-20T07:33:15;96785.97;;;7.43;51.31
28626;BME280;18905;42.668;23.364;2022-12-20T07:35:41;96792.88;;;8.07;52.02
28626;BME280;18905;42.668;23.364;2022-12-20T07:38:08;96779.03;;;6.84;51.99
28626;BME280;18905;42.668;23.364;2022-12-20T07:40:33;96784.00;;;6.75;52.98
28626;BME280;18905;42.668;23.364;2022-12-20T07:42:58;96788.66;;;6.80;54.78
28626;BME280;18905;42.668;23.364;2022-12-20T07:45:24;96793.19;;;5.77;55.25
28626;BME280;18905;42.668;23.364;2022-12-20T07:47:49;96787.75;;;8.00;51.68
28626;BME280;18905;42.668;23.364;2022-12-20T07:50:15;96779.03;;;9.41;48.99
28626;BME280;18905;42.668;23.364;2022-12-20T07:52:42;96782.78;;;7.46;50.17
28626;BME280;18905;42.668;23.364;2022-12-20T07:55:10;96777.44;;;7.14;51.83
28626;BME280;18905;42.668;23.364;2022-12-20T07:57:49;96781.44;;;6.59;53.83
28626;BME280;18905;42.668;23.364;2022-12-20T08:00:16;96778.72;;;5.40;56.39
28626;BME280;18905;42.668;23.364;2022-12-20T08:02:56;96776.06;;;5.78;56.35
28626;BME280;18905;42.668;23.364;2022-12-20T08:05:24;96761.25;;;6.08;54.02
28626;BME280;18905;42.668;23.364;2022-12-20T08:07:51;96779.69;;;5.50;55.98
28626;BME280;18905;42.668;23.364;2022-12-20T08:10:17;96755.31;;;5.19;57.75
28626;BME280;18905;42.668;23.364;2022-12-20T08:12:44;96765.69;;;5.48;56.60
28626;BME280;18905;42.668;23.364;2022-12-20T08:15:10;96773.59;;;6.09;55.07
28626;BME280;18905;42.668;23.364;2022-12-20T08:17:36;96746.84;;;5.60;55.17
28626;BME280;18905;42.668;23.364;2022-12-20T08:20:02;96742.03;;;5.40;56.27
28626;BME280;18905;42.668;23.364;2022-12-20T08:22:30;96761.44;;;6.02;55.46
28626;BME280;18905;42.668;23.364;2022-12-20T08:24:55;96755.16;;;5.09;55.78
28626;BME280;18905;42.668;23.364;2022-12-20T08:27:21;96764.75;;;5.38;57.17
28626;BME280;18905;42.668;23.364;2022-12-20T08:29:46;96725.75;;;4.48;59.09
28626;BME280;18905;42.668;23.364;2022-12-20T08:32:11;96767.09;;;5.18;58.83
28626;BME280;18905;42.668;23.364;2022-12-20T08:34:38;96752.56;;;4.81;59.63
28626;BME280;18905;42.668;23.364;2022-12-20T08:37:04;96748.09;;;5.36;58.13
28626;BME280;18905;42.668;23.364;2022-12-20T08:39:29;96746.25;;;5.20;56.81
28626;BME280;18905;42.668;23.364;2022-12-20T08:41:54;96742.44;;;5.16;57.35
28626;BME280;18905;42.668;23.364;2022-12-20T08:44:20;96746.00;;;4.88;59.44
28626;BME280;18905;42.668;23.364;2022-12-20T08:46:45;96747.44;;;5.62;56.50
28626;BME280;18905;42.668;23.364;2022-12-20T08:49:11;96733.75;;;5.09;57.14
28626;BME280;18905;42.668;23.364;2022-12-20T08:51:36;96744.72;;;5.24;56.86
28626;BME280;18905;42.668;23.364;2022-12-20T08:54:01;96736.06;;;3.77;62.95
28626;BME280;18905;42.668;23.364;2022-12-20T08:56:27;96736.88;;;4.73;60.95
28626;BME280;18905;42.668;23.364;2022-12-20T08:58:52;96724.50;;;5.00;59.83
28626;BME280;18905;42.668;23.364;2022-12-20T09:01:19;96736.88;;;4.73;58.51
28626;BME280;18905;42.668;23.364;2022-12-20T09:03:46;96741.22;;;5.07;58.44
28626;BME280;18905;42.668;23.364;2022-12-20T09:06:18;96732.94;;;5.41;56.45
28626;BME280;18905;42.668;23.364;2022-12-20T09:08:44;96739.25;;;6.33;54.93
28626;BME280;18905;42.668;23.364;2022-12-20T09:11:12;96731.94;;;6.50;53.59
28626;BME280;18905;42.668;23.364;2022-12-20T09:13:39;96736.03;;;6.09;52.26
28626;BME280;18905;42.668;23.364;2022-12-20T09:16:06;96725.38;;;5.93;53.09
28626;BME280;18905;42.668;23.364;2022-12-20T09:18:32;96715.34;;;5.67;55.01
28626;BME280;18905;42.668;23.364;2022-12-20T09:20:58;96715.84;;;6.02;53.74
28626;BME280;18905;42.668;23.364;2022-12-20T09:23:24;96699.56;;;5.70;54.12
28626;BME280;18905;42.668;23.364;2022-12-20T09:25:50;96692.69;;;4.70;54.43
28626;BME280;18905;42.668;23.364;2022-12-20T09:28:15;96696.66;;;5.72;54.60
28626;BME280;18905;42.668;23.364;2022-12-20T09:30:41;96695.13;;;5.38;54.13
28626;BME280;18905;42.668;23.364;2022-12-20T09:33:06;96699.28;;;6.10;52.53
28626;BME280;18905;42.668;23.364;2022-12-20T09:35:31;96691.25;;;6.58;51.91
28626;BME280;18905;42.668;23.364;2022-12-20T09:37:58;96702.06;;;6.68;50.99
28626;BME280;18905;42.668;23.364;2022-12-20T09:40:26;96698.81;;;6.92;50.73
28626;BME280;18905;42.668;23.364;2022-12-20T09:42:54;96679.97;;;7.24;49.88
28626;BME280;18905;42.668;23.364;2022-12-20T09:45:24;96690.06;;;7.90;48.74
28626;BME280;18905;42.668;23.364;2022-12-20T09:47:51;96677.78;;;7.16;49.41
28626;BME280;18905;42.668;23.364;2022-12-20T09:50:18;96679.41;;;7.17;49.35
28626;BME280;18905;42.668;23.364;2022-12-20T09:55:37;96667.81;;;7.53;48.74
28626;BME280;18905;42.668;23.364;2022-12-20T10:00:49;96639.34;;;7.15;48.82
28626;BME280;18905;42.668;23.364;2022-12-20T10:03:35;96658.09;;;7.52;48.12
28626;BME280;18905;42.668;23.364;2022-12-20T10:06:15;96653.56;;;6.21;48.92
28626;BME280;18905;42.668;23.364;2022-12-20T10:08:49;96649.78;;;5.96;49.90
28626;BME280;18905;42.668;23.364;2022-12-20T10:18:23;96620.66;;;6.31;49.05
28626;BME280;18905;42.668;23.364;2022-12-20T10:20:18;96615.09;;;6.69;49.53
28626;BME280;18905;42.668;23.364;2022-12-20T10:22:50;96611.69;;;6.47;49.02
28626;BME280;18905;42.668;23.364;2022-12-20T10:25:18;96597.84;;;6.02;50.22
28626;BME280;18905;42.668;23.364;2022-12-20T10:27:45;96575.16;;;5.66;50.37
28626;BME280;18905;42.668;23.364;2022-12-20T10:30:21;96589.16;;;5.47;50.64
28626;BME280;18905;42.668;23.364;2022-12-20T10:32:49;96576.00;;;5.24;51.71
28626;BME280;18905;42.668;23.364;2022-12-20T10:35:21;96579.94;;;5.38;51.28
28626;BME280;18905;42.668;23.364;2022-12-20T10:40:31;96567.03;;;5.35;51.16
28626;BME280;18905;42.668;23.364;2022-12-20T10:42:58;96545.13;;;5.86;50.28
28626;BME280;18905;42.668;23.364;2022-12-20T10:48:00;96545.72;;;5.71;49.26
28626;BME280;18905;42.668;23.364;2022-12-20T10:50:26;96540.72;;;4.89;51.54
28626;BME280;18905;42.668;23.364;2022-12-20T10:55:41;96530.00;;;4.89;52.42
28626;BME280;18905;42.668;23.364;2022-12-20T10:58:31;96534.50;;;5.48;52.85
28626;BME280;18905;42.668;23.364;2022-12-20T11:01:18;96534.75;;;5.25;51.56
28626;BME280;18905;42.668;23.364;2022-12-20T11:04:00;96532.25;;;5.40;51.75
28626;BME280;18905;42.668;23.364;2022-12-20T11:06:43;96531.75;;;5.00;51.22
28626;BME280;18905;42.668;23.364;2022-12-20T11:09:29;96519.66;;;4.97;51.89
28626;BME280;18905;42.668;23.364;2022-12-20T11:12:05;96516.69;;;4.94;52.72
28626;BME280;18905;42.668;23.364;2022-12-20T11:14:33;96517.81;;;5.19;51.91
28626;BME280;18905;42.668;23.364;2022-12-20T11:17:03;96516.94;;;5.14;52.46
28626;BME280;18905;42.668;23.364;2022-12-20T11:28:34;96498.00;;;4.99;52.98
28626;BME280;18905;42.668;23.364;2022-12-20T11:31:15;96500.81;;;5.09;53.29
28626;BME280;18905;42.668;23.364;2022-12-20T11:34:09;96490.75;;;4.94;52.58
28626;BME280;18905;42.668;23.364;2022-12-20T11:39:33;96482.25;;;5.02;53.32
28626;BME280;18905;42.668;23.364;2022-12-20T11:44:55;96473.03;;;5.63;51.16
28626;BME280;18905;42.668;23.364;2022-12-20T11:50:02;96475.91;;;5.30;52.65
28626;BME280;18905;42.668;23.364;2022-12-20T11:55:20;96445.44;;;4.88;52.86
28626;BME280;18905;42.668;23.364;2022-12-20T12:00:21;96463.72;;;5.70;50.83
28626;BME280;18905;42.668;23.364;2022-12-20T12:02:55;96456.94;;;5.89;50.43
28626;BME280;18905;42.668;23.364;2022-12-20T12:05:37;96458.19;;;5.50;49.98
28626;BME280;18905;42.668;23.364;2022-12-20T12:08:10;96454.56;;;5.66;49.72
28626;BME280;18905;42.668;23.364;2022-12-20T12:10:44;96445.53;;;5.46;49.70
28626;BME280;18905;42.668;23.364;2022-12-20T12:13:20;96449.56;;;5.75;49.53
28626;BME280;18905;42.668;23.364;2022-12-20T12:16:08;96456.50;;;5.97;48.83
28626;BME280;18905;42.668;23.364;2022-12-20T12:18:35;96450.31;;;5.97;48.26
28626;BME280;18905;42.668;23.364;2022-12-20T12:26:21;96434.63;;;6.10;47.44
28626;BME280;18905;42.668;23.364;2022-12-20T12:29:00;96437.56;;;6.50;45.87
28626;BME280;18905;42.668;23.364;2022-12-20T12:31:43;96433.69;;;6.31;45.50
28626;BME280;18905;42.668;23.364;2022-12-20T12:39:27;96442.72;;;6.57;45.02
28626;BME280;18905;42.668;23.364;2022-12-20T12:44:35;96435.06;;;6.34;45.21
28626;BME280;18905;42.668;23.364;2022-12-20T12:47:14;96431.97;;;6.15;46.51
28626;BME280;18905;42.668;23.364;2022-12-20T12:49:42;96436.00;;;6.18;46.01
28626;BME280;18905;42.668;23.364;2022-12-20T12:52:48;96433.88;;;6.61;45.78
28626;BME280;18905;42.668;23.364;2022-12-20T13:00:57;96416.88;;;6.46;44.28
28626;BME280;18905;42.668;23.364;2022-12-20T13:11:38;96416.59;;;6.06;44.41
28626;BME280;18905;42.668;23.364;2022-12-20T13:16:39;96406.97;;;6.10;44.56
28626;BME280;18905;42.668;23.364;2022-12-20T13:19:31;96390.78;;;5.95;44.37
28626;BME280;18905;42.668;23.364;2022-12-20T13:24:55;96412.88;;;6.53;43.92
28626;BME280;18905;42.668;23.364;2022-12-20T13:40:58;96395.72;;;6.08;44.75
28626;BME280;18905;42.668;23.364;2022-12-20T13:43:27;96387.97;;;5.80;44.64
28626;BME280;18905;42.668;23.364;2022-12-20T13:51:19;96397.75;;;5.96;45.02
28626;BME280;18905;42.668;23.364;2022-12-20T13:54:05;96399.75;;;6.10;45.08
28626;BME280;18905;42.668;23.364;2022-12-20T13:59:07;96403.63;;;5.88;45.78
28626;BME280;18905;42.668;23.364;2022-12-20T14:01:46;96386.59;;;5.19;45.21
28626;BME280;18905;42.668;23.364;2022-12-20T14:04:12;96390.19;;;5.30;45.26
28626;BME280;18905;42.668;23.364;2022-12-20T14:06:38;96386.78;;;5.39;45.37
28626;BME280;18905;42.668;23.364;2022-12-20T14:09:31;96377.59;;;5.30;45.41
28626;BME280;18905;42.668;23.364;2022-12-20T14:12:16;96382.84;;;4.94;46.29
28626;BME280;18905;42.668;23.364;2022-12-20T14:14:44;96387.38;;;4.93;46.12
28626;BME280;18905;42.668;23.364;2022-12-20T14:19:42;96367.06;;;4.71;46.63
28626;BME280;18905;42.668;23.364;2022-12-20T14:22:10;96364.25;;;4.82;47.62
28626;BME280;18905;42.668;23.364;2022-12-20T14:24:39;96375.38;;;4.96;46.88
28626;BME280;18905;42.668;23.364;2022-12-20T14:27:10;96372.63;;;4.91;46.72
28626;BME280;18905;42.668;23.364;2022-12-20T14:29:38;96377.00;;;4.97;46.43
28626;BME280;18905;42.668;23.364;2022-12-20T14:32:04;96379.63;;;4.92;46.45
28626;BME280;18905;42.668;23.364;2022-12-20T14:34:31;96375.50;;;4.84;47.48
28626;BME280;18905;42.668;23.364;2022-12-20T14:40:23;96371.47;;;4.82;48.18
28626;BME280;18905;42.668;23.364;2022-12-20T14:42:49;96358.09;;;4.60;48.09
28626;BME280;18905;42.668;23.364;2022-12-20T14:45:18;96364.78;;;4.58;48.44
28626;BME280;18905;42.668;23.364;2022-12-20T14:47:55;96353.19;;;4.52;48.71
28626;BME280;18905;42.668;23.364;2022-12-20T14:52:50;96359.91;;;4.55;49.36
28626;BME280;18905;42.668;23.364;2022-12-20T14:55:21;96352.28;;;4.42;49.55